Bad Ischl, Austria
Current Conditions -  °F | °C
As of 1:50 PM on Friday 24 Oct 2014 (Local Time) from LOWS Reporting Station
Broken Clouds Broken Clouds  
Wind Chill: 48°   Ceiling: 4500
Heat Index: 48°   Visibility: 6mi
Dew Point: 43°   Wind: 3mph
Humidity: 82%   Direction: 100°E
Pressure: 30.18"   Gusts: NA
Location:  47.72°N, 13.61°E
Report Text: LOWS 241150Z 10003KT 070V210 9999 FEW010 BKN045 09/06 Q1022 NOSIG
Loading
Personal Weather Stations






























Interactive Weather Map
Tropical Storm Tracking
New forecast layout! Learn more

10-Day Weather Forecast

Advertisements
Track Severe Weather on mobile